sensor_id;sensor_type;location;lat;lon;timestamp;temperature;humidity
22795;DHT22;11564;50.920;11.612;2022-12-18T00:00:05;-11.60;99.90
22795;DHT22;11564;50.920;11.612;2022-12-18T00:02:31;-11.60;99.90
22795;DHT22;11564;50.920;11.612;2022-12-18T00:04:57;-11.60;99.90
22795;DHT22;11564;50.920;11.612;2022-12-18T00:07:25;-11.60;99.90
22795;DHT22;11564;50.920;11.612;2022-12-18T00:09:50;-11.70;99.90
22795;DHT22;11564;50.920;11.612;2022-12-18T00:12:16;-11.60;99.90
22795;DHT22;11564;50.920;11.612;2022-12-18T00:14:42;-11.60;99.90
22795;DHT22;11564;50.920;11.612;2022-12-18T00:17:10;-11.60;99.90
22795;DHT22;11564;50.920;11.612;2022-12-18T00:19:36;-11.60;99.90
22795;DHT22;11564;50.920;11.612;2022-12-18T00:22:01;-11.70;99.90
22795;DHT22;11564;50.920;11.612;2022-12-18T00:24:27;-11.70;99.90
22795;DHT22;11564;50.920;11.612;2022-12-18T00:26:52;-11.70;99.90
22795;DHT22;11564;50.920;11.612;2022-12-18T00:29:18;-11.70;99.90
22795;DHT22;11564;50.920;11.612;2022-12-18T00:31:43;-11.80;99.90
22795;DHT22;11564;50.920;11.612;2022-12-18T00:34:12;-11.70;99.90
22795;DHT22;11564;50.920;11.612;2022-12-18T00:36:38;-11.80;99.90
22795;DHT22;11564;50.920;11.612;2022-12-18T00:39:04;-11.80;99.90
22795;DHT22;11564;50.920;11.612;2022-12-18T00:41:30;-11.80;99.90
22795;DHT22;11564;50.920;11.612;2022-12-18T00:44:15;-11.80;99.90
22795;DHT22;11564;50.920;11.612;2022-12-18T00:46:41;-11.80;99.90
22795;DHT22;11564;50.920;11.612;2022-12-18T00:49:06;-11.80;99.90
22795;DHT22;11564;50.920;11.612;2022-12-18T00:51:32;-11.80;99.90
22795;DHT22;11564;50.920;11.612;2022-12-18T00:53:57;-11.80;99.90
22795;DHT22;11564;50.920;11.612;2022-12-18T00:56:23;-11.90;99.90
22795;DHT22;11564;50.920;11.612;2022-12-18T00:58:49;-11.90;99.90
22795;DHT22;11564;50.920;11.612;2022-12-18T01:01:15;-11.90;99.90
22795;DHT22;11564;50.920;11.612;2022-12-18T01:03:41;-11.90;99.90
22795;DHT22;11564;50.920;11.612;2022-12-18T01:06:08;-11.90;99.90
22795;DHT22;11564;50.920;11.612;2022-12-18T01:08:34;-12.00;99.90
22795;DHT22;11564;50.920;11.612;2022-12-18T01:11:06;-12.00;99.90
22795;DHT22;11564;50.920;11.612;2022-12-18T01:13:32;-12.00;99.90
22795;DHT22;11564;50.920;11.612;2022-12-18T01:15:58;-12.00;99.90
22795;DHT22;11564;50.920;11.612;2022-12-18T01:18:23;-12.10;99.90
22795;DHT22;11564;50.920;11.612;2022-12-18T01:20:49;-12.10;99.90
22795;DHT22;11564;50.920;11.612;2022-12-18T01:23:15;-12.20;99.90
22795;DHT22;11564;50.920;11.612;2022-12-18T01:25:41;-12.10;99.90
22795;DHT22;11564;50.920;11.612;2022-12-18T01:28:06;-12.10;99.90
22795;DHT22;11564;50.920;11.612;2022-12-18T01:30:32;-12.20;99.90
22795;DHT22;11564;50.920;11.612;2022-12-18T01:32:57;-12.10;99.90
22795;DHT22;11564;50.920;11.612;2022-12-18T01:35:23;-12.10;99.90
22795;DHT22;11564;50.920;11.612;2022-12-18T01:37:49;-12.10;99.90
22795;DHT22;11564;50.920;11.612;2022-12-18T01:40:14;-12.10;99.90
22795;DHT22;11564;50.920;11.612;2022-12-18T01:42:40;-12.20;99.80
22795;DHT22;11564;50.920;11.612;2022-12-18T01:48:07;-12.30;99.70
22795;DHT22;11564;50.920;11.612;2022-12-18T01:50:38;-12.30;99.70
22795;DHT22;11564;50.920;11.612;2022-12-18T01:55:51;-12.40;99.40
22795;DHT22;11564;50.920;11.612;2022-12-18T01:58:19;-12.40;99.50
22795;DHT22;11564;50.920;11.612;2022-12-18T02:00:48;-12.40;99.40
22795;DHT22;11564;50.920;11.612;2022-12-18T02:03:13;-12.50;99.40
22795;DHT22;11564;50.920;11.612;2022-12-18T02:06:16;-12.50;99.40
22795;DHT22;11564;50.920;11.612;2022-12-18T02:12:22;-12.50;99.30
22795;DHT22;11564;50.920;11.612;2022-12-18T02:17:16;-12.50;99.30
22795;DHT22;11564;50.920;11.612;2022-12-18T02:20:20;-12.50;99.30
22795;DHT22;11564;50.920;11.612;2022-12-18T02:25:26;-12.60;99.10
22795;DHT22;11564;50.920;11.612;2022-12-18T02:27:59;-12.60;99.00
22795;DHT22;11564;50.920;11.612;2022-12-18T02:30:27;-12.60;99.10
22795;DHT22;11564;50.920;11.612;2022-12-18T02:32:56;-12.60;99.30
22795;DHT22;11564;50.920;11.612;2022-12-18T02:35:25;-12.60;99.20
22795;DHT22;11564;50.920;11.612;2022-12-18T02:37:53;-12.70;99.10
22795;DHT22;11564;50.920;11.612;2022-12-18T02:40:19;-12.60;99.20
22795;DHT22;11564;50.920;11.612;2022-12-18T02:42:46;-12.60;99.10
22795;DHT22;11564;50.920;11.612;2022-12-18T02:45:11;-12.60;98.90
22795;DHT22;11564;50.920;11.612;2022-12-18T02:47:40;-12.70;98.70
22795;DHT22;11564;50.920;11.612;2022-12-18T02:53:29;-12.90;98.50
22795;DHT22;11564;50.920;11.612;2022-12-18T03:04:02;-12.90;98.40
22795;DHT22;11564;50.920;11.612;2022-12-18T03:06:37;-12.80;98.70
22795;DHT22;11564;50.920;11.612;2022-12-18T03:09:12;-12.90;98.50
22795;DHT22;11564;50.920;11.612;2022-12-18T03:11:42;-12.90;98.60
22795;DHT22;11564;50.920;11.612;2022-12-18T03:14:32;-13.00;98.40
22795;DHT22;11564;50.920;11.612;2022-12-18T03:17:02;-12.90;98.50
22795;DHT22;11564;50.920;11.612;2022-12-18T03:19:29;-12.90;98.50
22795;DHT22;11564;50.920;11.612;2022-12-18T03:21:58;-12.90;98.40
22795;DHT22;11564;50.920;11.612;2022-12-18T03:24:28;-13.00;98.30
22795;DHT22;11564;50.920;11.612;2022-12-18T03:26:58;-13.00;98.30
22795;DHT22;11564;50.920;11.612;2022-12-18T03:29:43;-13.00;98.20
22795;DHT22;11564;50.920;11.612;2022-12-18T03:32:29;-13.00;98.20
22795;DHT22;11564;50.920;11.612;2022-12-18T03:35:00;-13.10;98.10
22795;DHT22;11564;50.920;11.612;2022-12-18T03:37:29;-13.10;98.20
22795;DHT22;11564;50.920;11.612;2022-12-18T03:39:58;-13.00;98.20
22795;DHT22;11564;50.920;11.612;2022-12-18T03:42:29;-13.00;98.20
22795;DHT22;11564;50.920;11.612;2022-12-18T03:50:19;-13.10;98.10
22795;DHT22;11564;50.920;11.612;2022-12-18T03:53:00;-13.10;98.20
22795;DHT22;11564;50.920;11.612;2022-12-18T03:55:32;-13.10;98.20
22795;DHT22;11564;50.920;11.612;2022-12-18T03:57:59;-13.10;98.20
22795;DHT22;11564;50.920;11.612;2022-12-18T04:00:27;-13.10;98.10
22795;DHT22;11564;50.920;11.612;2022-12-18T04:02:56;-13.20;98.10
22795;DHT22;11564;50.920;11.612;2022-12-18T04:05:24;-13.20;98.00
22795;DHT22;11564;50.920;11.612;2022-12-18T04:07:51;-13.20;98.10
22795;DHT22;11564;50.920;11.612;2022-12-18T04:10:19;-13.20;98.00
22795;DHT22;11564;50.920;11.612;2022-12-18T04:12:45;-13.20;97.90
22795;DHT22;11564;50.920;11.612;2022-12-18T04:15:11;-13.20;98.10
22795;DHT22;11564;50.920;11.612;2022-12-18T04:17:38;-13.20;98.50
22795;DHT22;11564;50.920;11.612;2022-12-18T04:20:05;-13.10;98.60
22795;DHT22;11564;50.920;11.612;2022-12-18T04:22:30;-13.10;98.20
22795;DHT22;11564;50.920;11.612;2022-12-18T04:24:56;-13.20;98.10
22795;DHT22;11564;50.920;11.612;2022-12-18T04:27:22;-13.20;98.10
22795;DHT22;11564;50.920;11.612;2022-12-18T04:29:47;-13.20;98.10
22795;DHT22;11564;50.920;11.612;2022-12-18T04:32:13;-13.20;98.10
22795;DHT22;11564;50.920;11.612;2022-12-18T04:34:38;-13.20;98.00
22795;DHT22;11564;50.920;11.612;2022-12-18T04:37:04;-13.30;97.70
22795;DHT22;11564;50.920;11.612;2022-12-18T04:39:30;-13.30;97.80
22795;DHT22;11564;50.920;11.612;2022-12-18T04:41:55;-13.30;97.80
22795;DHT22;11564;50.920;11.612;2022-12-18T04:44:21;-13.30;97.90
22795;DHT22;11564;50.920;11.612;2022-12-18T04:46:47;-13.30;98.00
22795;DHT22;11564;50.920;11.612;2022-12-18T04:49:12;-13.30;97.70
22795;DHT22;11564;50.920;11.612;2022-12-18T04:51:38;-13.30;97.80
22795;DHT22;11564;50.920;11.612;2022-12-18T04:54:04;-13.30;97.80
22795;DHT22;11564;50.920;11.612;2022-12-18T04:56:31;-13.30;98.00
22795;DHT22;11564;50.920;11.612;2022-12-18T04:58:57;-13.30;97.90
22795;DHT22;11564;50.920;11.612;2022-12-18T05:01:22;-13.30;97.70
22795;DHT22;11564;50.920;11.612;2022-12-18T05:03:48;-13.40;97.60
22795;DHT22;11564;50.920;11.612;2022-12-18T05:06:14;-13.30;97.70
22795;DHT22;11564;50.920;11.612;2022-12-18T05:08:40;-13.30;97.60
22795;DHT22;11564;50.920;11.612;2022-12-18T05:11:08;-13.30;97.50
22795;DHT22;11564;50.920;11.612;2022-12-18T05:13:35;-13.30;97.50
22795;DHT22;11564;50.920;11.612;2022-12-18T05:16:01;-13.30;97.40
22795;DHT22;11564;50.920;11.612;2022-12-18T05:18:27;-13.30;97.60
22795;DHT22;11564;50.920;11.612;2022-12-18T05:20:53;-13.40;97.20
22795;DHT22;11564;50.920;11.612;2022-12-18T05:23:20;-13.40;97.20
22795;DHT22;11564;50.920;11.612;2022-12-18T05:26:06;-13.40;97.20
22795;DHT22;11564;50.920;11.612;2022-12-18T05:28:35;-13.40;97.10
22795;DHT22;11564;50.920;11.612;2022-12-18T05:31:02;-13.50;96.90
22795;DHT22;11564;50.920;11.612;2022-12-18T05:33:33;-13.60;96.90
22795;DHT22;11564;50.920;11.612;2022-12-18T05:36:01;-13.60;97.10
22795;DHT22;11564;50.920;11.612;2022-12-18T05:38:28;-13.60;97.10
22795;DHT22;11564;50.920;11.612;2022-12-18T05:40:54;-13.60;97.20
22795;DHT22;11564;50.920;11.612;2022-12-18T05:43:21;-13.50;97.30
22795;DHT22;11564;50.920;11.612;2022-12-18T05:45:47;-13.50;97.30
22795;DHT22;11564;50.920;11.612;2022-12-18T05:48:14;-13.70;96.90
22795;DHT22;11564;50.920;11.612;2022-12-18T05:50:41;-13.80;97.30
22795;DHT22;11564;50.920;11.612;2022-12-18T05:53:07;-13.80;97.50
22795;DHT22;11564;50.920;11.612;2022-12-18T05:55:37;-13.70;97.70
22795;DHT22;11564;50.920;11.612;2022-12-18T05:58:04;-13.70;97.60
22795;DHT22;11564;50.920;11.612;2022-12-18T06:00:31;-13.70;97.60
22795;DHT22;11564;50.920;11.612;2022-12-18T06:02:58;-13.70;97.40
22795;DHT22;11564;50.920;11.612;2022-12-18T06:05:24;-13.70;97.20
22795;DHT22;11564;50.920;11.612;2022-12-18T06:07:50;-13.70;97.20
22795;DHT22;11564;50.920;11.612;2022-12-18T06:10:15;-13.70;97.00
22795;DHT22;11564;50.920;11.612;2022-12-18T06:12:41;-13.70;97.10
22795;DHT22;11564;50.920;11.612;2022-12-18T06:15:07;-13.80;96.80
22795;DHT22;11564;50.920;11.612;2022-12-18T06:17:34;-13.70;96.90
22795;DHT22;11564;50.920;11.612;2022-12-18T06:19:59;-13.70;96.80
22795;DHT22;11564;50.920;11.612;2022-12-18T06:22:26;-13.80;96.60
22795;DHT22;11564;50.920;11.612;2022-12-18T06:24:52;-13.90;96.70
22795;DHT22;11564;50.920;11.612;2022-12-18T06:27:18;-13.90;96.80
22795;DHT22;11564;50.920;11.612;2022-12-18T06:29:43;-13.90;96.90
22795;DHT22;11564;50.920;11.612;2022-12-18T06:32:09;-13.90;97.10
22795;DHT22;11564;50.920;11.612;2022-12-18T06:34:36;-13.90;97.00
22795;DHT22;11564;50.920;11.612;2022-12-18T06:37:02;-13.90;96.90
22795;DHT22;11564;50.920;11.612;2022-12-18T06:39:27;-13.90;96.70
22795;DHT22;11564;50.920;11.612;2022-12-18T06:41:53;-13.90;96.70
22795;DHT22;11564;50.920;11.612;2022-12-18T06:44:18;-13.90;96.60
22795;DHT22;11564;50.920;11.612;2022-12-18T06:46:44;-13.90;96.60
22795;DHT22;11564;50.920;11.612;2022-12-18T06:49:10;-13.90;96.60
22795;DHT22;11564;50.920;11.612;2022-12-18T06:51:35;-13.90;96.60
22795;DHT22;11564;50.920;11.612;2022-12-18T06:54:02;-14.00;96.60
22795;DHT22;11564;50.920;11.612;2022-12-18T06:56:27;-13.90;96.60
22795;DHT22;11564;50.920;11.612;2022-12-18T06:58:53;-14.00;96.50
22795;DHT22;11564;50.920;11.612;2022-12-18T07:01:18;-14.20;96.50
22795;DHT22;11564;50.920;11.612;2022-12-18T07:03:44;-14.00;96.80
22795;DHT22;11564;50.920;11.612;2022-12-18T07:06:14;-14.00;96.80
22795;DHT22;11564;50.920;11.612;2022-12-18T07:08:40;-14.00;96.70
22795;DHT22;11564;50.920;11.612;2022-12-18T07:11:05;-14.00;96.70
22795;DHT22;11564;50.920;11.612;2022-12-18T07:13:31;-13.90;96.70
22795;DHT22;11564;50.920;11.612;2022-12-18T07:16:07;-13.80;96.50
22795;DHT22;11564;50.920;11.612;2022-12-18T07:18:33;-13.80;96.20
22795;DHT22;11564;50.920;11.612;2022-12-18T07:21:02;-13.90;96.10
22795;DHT22;11564;50.920;11.612;2022-12-18T07:23:27;-13.90;96.30
22795;DHT22;11564;50.920;11.612;2022-12-18T07:25:53;-13.80;96.60
22795;DHT22;11564;50.920;11.612;2022-12-18T07:28:18;-13.90;96.60
22795;DHT22;11564;50.920;11.612;2022-12-18T07:30:44;-13.90;96.60
22795;DHT22;11564;50.920;11.612;2022-12-18T07:33:10;-13.90;96.80
22795;DHT22;11564;50.920;11.612;2022-12-18T07:35:35;-13.90;96.90
22795;DHT22;11564;50.920;11.612;2022-12-18T07:38:04;-13.80;97.00
22795;DHT22;11564;50.920;11.612;2022-12-18T07:40:29;-13.70;97.10
22795;DHT22;11564;50.920;11.612;2022-12-18T07:42:55;-13.70;96.90
22795;DHT22;11564;50.920;11.612;2022-12-18T07:45:20;-13.70;96.80
22795;DHT22;11564;50.920;11.612;2022-12-18T07:47:46;-13.70;96.60
22795;DHT22;11564;50.920;11.612;2022-12-18T07:50:11;-13.60;96.70
22795;DHT22;11564;50.920;11.612;2022-12-18T07:52:38;-13.50;96.60
22795;DHT22;11564;50.920;11.612;2022-12-18T07:55:04;-13.50;96.30
22795;DHT22;11564;50.920;11.612;2022-12-18T07:57:29;-13.50;96.40
22795;DHT22;11564;50.920;11.612;2022-12-18T07:59:55;-13.40;96.30
22795;DHT22;11564;50.920;11.612;2022-12-18T08:02:20;-13.40;96.30
22795;DHT22;11564;50.920;11.612;2022-12-18T08:04:46;-13.50;96.20
22795;DHT22;11564;50.920;11.612;2022-12-18T08:07:11;-13.50;96.20
22795;DHT22;11564;50.920;11.612;2022-12-18T08:09:37;-13.70;96.00
22795;DHT22;11564;50.920;11.612;2022-12-18T08:12:02;-13.80;96.40
22795;DHT22;11564;50.920;11.612;2022-12-18T08:14:29;-13.80;96.80
22795;DHT22;11564;50.920;11.612;2022-12-18T08:16:55;-13.60;97.00
22795;DHT22;11564;50.920;11.612;2022-12-18T08:19:21;-13.50;97.00
22795;DHT22;11564;50.920;11.612;2022-12-18T08:21:46;-13.50;96.80
22795;DHT22;11564;50.920;11.612;2022-12-18T08:24:12;-13.40;96.80
22795;DHT22;11564;50.920;11.612;2022-12-18T08:26:38;-13.30;96.90
22795;DHT22;11564;50.920;11.612;2022-12-18T08:29:03;-13.20;96.80
22795;DHT22;11564;50.920;11.612;2022-12-18T08:31:29;-13.40;96.50
22795;DHT22;11564;50.920;11.612;2022-12-18T08:33:55;-13.50;96.60
22795;DHT22;11564;50.920;11.612;2022-12-18T08:36:21;-13.30;97.00
22795;DHT22;11564;50.920;11.612;2022-12-18T08:38:46;-13.20;97.20
22795;DHT22;11564;50.920;11.612;2022-12-18T08:41:13;-13.10;97.30
22795;DHT22;11564;50.920;11.612;2022-12-18T08:43:39;-13.00;97.50
22795;DHT22;11564;50.920;11.612;2022-12-18T08:46:24;-12.90;97.00
22795;DHT22;11564;50.920;11.612;2022-12-18T08:48:50;-12.80;96.90
22795;DHT22;11564;50.920;11.612;2022-12-18T08:51:16;-12.70;96.50
22795;DHT22;11564;50.920;11.612;2022-12-18T08:53:42;-12.60;96.40
22795;DHT22;11564;50.920;11.612;2022-12-18T08:56:08;-12.60;96.30
22795;DHT22;11564;50.920;11.612;2022-12-18T08:58:34;-12.60;96.30
22795;DHT22;11564;50.920;11.612;2022-12-18T09:01:03;-12.60;96.20
22795;DHT22;11564;50.920;11.612;2022-12-18T09:03:28;-12.50;96.40
22795;DHT22;11564;50.920;11.612;2022-12-18T09:05:54;-12.60;96.30
22795;DHT22;11564;50.920;11.612;2022-12-18T09:08:19;-12.50;96.60
22795;DHT22;11564;50.920;11.612;2022-12-18T09:10:48;-12.40;96.70
22795;DHT22;11564;50.920;11.612;2022-12-18T09:13:14;-12.40;96.30
22795;DHT22;11564;50.920;11.612;2022-12-18T09:15:44;-12.30;96.40
22795;DHT22;11564;50.920;11.612;2022-12-18T09:18:10;-12.30;96.40
22795;DHT22;11564;50.920;11.612;2022-12-18T09:20:36;-12.20;96.30
22795;DHT22;11564;50.920;11.612;2022-12-18T09:23:02;-12.20;96.20
22795;DHT22;11564;50.920;11.612;2022-12-18T09:25:31;-12.10;96.10
22795;DHT22;11564;50.920;11.612;2022-12-18T09:28:19;-12.10;96.10
22795;DHT22;11564;50.920;11.612;2022-12-18T09:30:46;-12.00;96.30
22795;DHT22;11564;50.920;11.612;2022-12-18T09:33:12;-11.90;96.40
22795;DHT22;11564;50.920;11.612;2022-12-18T09:35:38;-11.80;96.50
22795;DHT22;11564;50.920;11.612;2022-12-18T09:38:04;-11.80;96.40
22795;DHT22;11564;50.920;11.612;2022-12-18T09:40:32;-11.80;96.50
22795;DHT22;11564;50.920;11.612;2022-12-18T09:42:59;-11.70;96.50
22795;DHT22;11564;50.920;11.612;2022-12-18T09:45:26;-11.70;96.60
22795;DHT22;11564;50.920;11.612;2022-12-18T09:47:52;-11.60;96.80
22795;DHT22;11564;50.920;11.612;2022-12-18T09:52:54;-11.40;97.20
22795;DHT22;11564;50.920;11.612;2022-12-18T09:55:37;-11.40;97.20
22795;DHT22;11564;50.920;11.612;2022-12-18T09:58:06;-11.30;97.60
22795;DHT22;11564;50.920;11.612;2022-12-18T10:00:35;-11.10;97.90
22795;DHT22;11564;50.920;11.612;2022-12-18T10:03:03;-11.10;97.70
22795;DHT22;11564;50.920;11.612;2022-12-18T10:05:34;-10.90;98.00
22795;DHT22;11564;50.920;11.612;2022-12-18T10:08:05;-10.80;98.20
22795;DHT22;11564;50.920;11.612;2022-12-18T10:20:46;-10.00;99.90
22795;DHT22;11564;50.920;11.612;2022-12-18T10:26:04;-9.70;99.90
22795;DHT22;11564;50.920;11.612;2022-12-18T10:28:31;-9.60;99.90
22795;DHT22;11564;50.920;11.612;2022-12-18T10:30:57;-9.60;99.90
22795;DHT22;11564;50.920;11.612;2022-12-18T10:33:24;-9.40;99.90
22795;DHT22;11564;50.920;11.612;2022-12-18T10:35:51;-9.20;99.90
22795;DHT22;11564;50.920;11.612;2022-12-18T10:38:21;-8.90;99.90
22795;DHT22;11564;50.920;11.612;2022-12-18T10:43:32;-8.40;99.90
22795;DHT22;11564;50.920;11.612;2022-12-18T10:45:58;-8.20;99.90
22795;DHT22;11564;50.920;11.612;2022-12-18T10:48:24;-8.20;99.90
22795;DHT22;11564;50.920;11.612;2022-12-18T10:50:50;-8.00;99.90
22795;DHT22;11564;50.920;11.612;2022-12-18T10:53:27;-7.80;99.90
22795;DHT22;11564;50.920;11.612;2022-12-18T10:55:54;-7.80;99.90
22795;DHT22;11564;50.920;11.612;2022-12-18T10:58:28;-7.70;99.90
22795;DHT22;11564;50.920;11.612;2022-12-18T11:03:30;-7.60;99.90
22795;DHT22;11564;50.920;11.612;2022-12-18T11:06:02;-7.40;99.90
22795;DHT22;11564;50.920;11.612;2022-12-18T11:08:28;-7.20;99.90
22795;DHT22;11564;50.920;11.612;2022-12-18T11:10:54;-6.90;99.90
22795;DHT22;11564;50.920;11.612;2022-12-18T11:13:20;-6.70;99.90
22795;DHT22;11564;50.920;11.612;2022-12-18T11:15:46;-6.40;99.90
22795;DHT22;11564;50.920;11.612;2022-12-18T11:18:28;-6.10;99.90
22795;DHT22;11564;50.920;11.612;2022-12-18T11:23:33;-5.60;99.90
22795;DHT22;11564;50.920;11.612;2022-12-18T11:25:59;-5.40;99.90
22795;DHT22;11564;50.920;11.612;2022-12-18T11:28:28;-5.20;99.90
22795;DHT22;11564;50.920;11.612;2022-12-18T11:33:39;-4.70;99.50
22795;DHT22;11564;50.920;11.612;2022-12-18T11:36:07;-4.70;98.60
22795;DHT22;11564;50.920;11.612;2022-12-18T11:38:37;-5.00;98.60
22795;DHT22;11564;50.920;11.612;2022-12-18T11:43:52;-4.50;99.00
22795;DHT22;11564;50.920;11.612;2022-12-18T11:48:56;-3.90;98.30
22795;DHT22;11564;50.920;11.612;2022-12-18T11:51:29;-3.60;98.10
22795;DHT22;11564;50.920;11.612;2022-12-18T11:53:57;-3.20;97.80
22795;DHT22;11564;50.920;11.612;2022-12-18T11:56:27;-3.10;97.10
22795;DHT22;11564;50.920;11.612;2022-12-18T11:59:08;-2.90;97.40
22795;DHT22;11564;50.920;11.612;2022-12-18T12:02:27;-2.70;97.00
22795;DHT22;11564;50.920;11.612;2022-12-18T12:05:46;-2.60;96.50
22795;DHT22;11564;50.920;11.612;2022-12-18T12:23:28;-1.80;94.70
22795;DHT22;11564;50.920;11.612;2022-12-18T12:26:03;-1.50;95.20
22795;DHT22;11564;50.920;11.612;2022-12-18T12:28:43;-1.80;94.40
22795;DHT22;11564;50.920;11.612;2022-12-18T12:36:21;-1.30;94.70
22795;DHT22;11564;50.920;11.612;2022-12-18T12:38:55;-1.30;94.70
22795;DHT22;11564;50.920;11.612;2022-12-18T12:41:24;-1.20;94.00
22795;DHT22;11564;50.920;11.612;2022-12-18T12:44:28;-1.10;94.00
22795;DHT22;11564;50.920;11.612;2022-12-18T12:46:57;-0.80;94.10
22795;DHT22;11564;50.920;11.612;2022-12-18T12:49:27;-1.10;94.10
22795;DHT22;11564;50.920;11.612;2022-12-18T12:52:10;-0.90;94.80
22795;DHT22;11564;50.920;11.612;2022-12-18T12:54:37;-1.20;94.50
22795;DHT22;11564;50.920;11.612;2022-12-18T13:03:11;-1.50;94.90
22795;DHT22;11564;50.920;11.612;2022-12-18T13:05:56;-1.60;95.20
22795;DHT22;11564;50.920;11.612;2022-12-18T13:08:26;-1.50;95.20
22795;DHT22;11564;50.920;11.612;2022-12-18T13:10:56;-1.60;95.40
22795;DHT22;11564;50.920;11.612;2022-12-18T13:14:02;-1.60;95.20
22795;DHT22;11564;50.920;11.612;2022-12-18T13:16:27;-1.70;94.90
22795;DHT22;11564;50.920;11.612;2022-12-18T13:18:55;-1.70;94.50
22795;DHT22;11564;50.920;11.612;2022-12-18T13:21:24;-1.80;95.00
22795;DHT22;11564;50.920;11.612;2022-12-18T13:23:52;-2.00;95.60
22795;DHT22;11564;50.920;11.612;2022-12-18T13:34:29;-2.10;95.10
22795;DHT22;11564;50.920;11.612;2022-12-18T13:37:35;-1.80;95.10
22795;DHT22;11564;50.920;11.612;2022-12-18T13:39:43;-1.80;94.90
22795;DHT22;11564;50.920;11.612;2022-12-18T13:44:36;-2.10;95.20
22795;DHT22;11564;50.920;11.612;2022-12-18T13:47:26;-2.00;95.30
22795;DHT22;11564;50.920;11.612;2022-12-18T13:49:54;-2.00;94.60
22795;DHT22;11564;50.920;11.612;2022-12-18T13:52:26;-2.10;94.60
22795;DHT22;11564;50.920;11.612;2022-12-18T13:54:57;-2.10;94.70
22795;DHT22;11564;50.920;11.612;2022-12-18T13:57:43;-2.30;94.90
22795;DHT22;11564;50.920;11.612;2022-12-18T14:02:45;-2.20;94.60
22795;DHT22;11564;50.920;11.612;2022-12-18T14:05:29;-2.40;95.10
22795;DHT22;11564;50.920;11.612;2022-12-18T14:08:00;-2.40;95.40
22795;DHT22;11564;50.920;11.612;2022-12-18T14:10:27;-2.60;95.70
22795;DHT22;11564;50.920;11.612;2022-12-18T14:12:53;-2.70;96.00
22795;DHT22;11564;50.920;11.612;2022-12-18T14:18:02;-2.70;96.30
22795;DHT22;11564;50.920;11.612;2022-12-18T14:20:34;-3.00;96.40
22795;DHT22;11564;50.920;11.612;2022-12-18T14:23:00;-3.10;96.60
22795;DHT22;11564;50.920;11.612;2022-12-18T14:25:27;-3.20;96.80
22795;DHT22;11564;50.920;11.612;2022-12-18T14:28:12;-3.30;96.50
22795;DHT22;11564;50.920;11.612;2022-12-18T14:30:44;-3.60;96.60
22795;DHT22;11564;50.920;11.612;2022-12-18T14:35:52;-3.70;97.10
22795;DHT22;11564;50.920;11.612;2022-12-18T14:40:51;-3.80;97.50
22795;DHT22;11564;50.920;11.612;2022-12-18T14:43:17;-3.80;97.80
22795;DHT22;11564;50.920;11.612;2022-12-18T14:45:43;-3.90;97.60
22795;DHT22;11564;50.920;11.612;2022-12-18T14:50:41;-4.00;98.00
22795;DHT22;11564;50.920;11.612;2022-12-18T14:56:24;-4.10;98.40
22795;DHT22;11564;50.920;11.612;2022-12-18T14:58:58;-4.20;98.80
22795;DHT22;11564;50.920;11.612;2022-12-18T15:01:31;-4.10;99.10
22795;DHT22;11564;50.920;11.612;2022-12-18T15:03:59;-4.20;99.20
22795;DHT22;11564;50.920;11.612;2022-12-18T15:06:28;-4.30;99.40
22795;DHT22;11564;50.920;11.612;2022-12-18T15:08:56;-4.20;99.80
22795;DHT22;11564;50.920;11.612;2022-12-18T15:11:33;-4.20;99.80
22795;DHT22;11564;50.920;11.612;2022-12-18T15:14:00;-4.30;99.80
22795;DHT22;11564;50.920;11.612;2022-12-18T15:16:53;-4.40;99.80
22795;DHT22;11564;50.920;11.612;2022-12-18T15:19:21;-4.40;99.90
22795;DHT22;11564;50.920;11.612;2022-12-18T15:21:47;-4.30;99.90
22795;DHT22;11564;50.920;11.612;2022-12-18T15:24:24;-4.40;99.90
22795;DHT22;11564;50.920;11.612;2022-12-18T15:26:51;-4.50;99.90
22795;DHT22;11564;50.920;11.612;2022-12-18T15:29:20;-4.50;99.90
22795;DHT22;11564;50.920;11.612;2022-12-18T15:32:15;-4.40;99.90
22795;DHT22;11564;50.920;11.612;2022-12-18T15:34:44;-4.40;99.90
22795;DHT22;11564;50.920;11.612;2022-12-18T15:37:09;-4.40;99.90
22795;DHT22;11564;50.920;11.612;2022-12-18T15:39:35;-4.40;99.90
22795;DHT22;11564;50.920;11.612;2022-12-18T15:42:01;-4.40;99.90
22795;DHT22;11564;50.920;11.612;2022-12-18T15:44:45;-4.50;99.90
22795;DHT22;11564;50.920;11.612;2022-12-18T15:47:12;-4.50;99.90
22795;DHT22;11564;50.920;11.612;2022-12-18T15:49:38;-4.50;99.90
22795;DHT22;11564;50.920;11.612;2022-12-18T15:52:04;-4.50;99.90
22795;DHT22;11564;50.920;11.612;2022-12-18T15:54:30;-4.50;99.90
22795;DHT22;11564;50.920;11.612;2022-12-18T15:57:15;-4.40;99.90
22795;DHT22;11564;50.920;11.612;2022-12-18T15:59:51;-4.10;99.20
22795;DHT22;11564;50.920;11.612;2022-12-18T16:02:19;-3.80;98.30
22795;DHT22;11564;50.920;11.612;2022-12-18T16:04:45;-3.70;97.90
22795;DHT22;11564;50.920;11.612;2022-12-18T16:07:11;-3.50;97.50
22795;DHT22;11564;50.920;11.612;2022-12-18T16:09:37;-3.50;97.80
22795;DHT22;11564;50.920;11.612;2022-12-18T16:12:04;-3.50;97.70
22795;DHT22;11564;50.920;11.612;2022-12-18T16:14:31;-3.40;96.90
22795;DHT22;11564;50.920;11.612;2022-12-18T16:17:05;-3.20;96.00
22795;DHT22;11564;50.920;11.612;2022-12-18T16:19:34;-3.10;96.10
22795;DHT22;11564;50.920;11.612;2022-12-18T16:21:59;-3.10;96.50
22795;DHT22;11564;50.920;11.612;2022-12-18T16:24:27;-3.10;96.80
22795;DHT22;11564;50.920;11.612;2022-12-18T16:26:54;-3.10;96.70
22795;DHT22;11564;50.920;11.612;2022-12-18T16:29:21;-3.00;95.00
22795;DHT22;11564;50.920;11.612;2022-12-18T16:32:00;-2.80;94.50
22795;DHT22;11564;50.920;11.612;2022-12-18T16:34:30;-2.90;96.20
22795;DHT22;11564;50.920;11.612;2022-12-18T16:36:58;-3.00;96.80
22795;DHT22;11564;50.920;11.612;2022-12-18T16:39:25;-3.10;96.90
22795;DHT22;11564;50.920;11.612;2022-12-18T16:41:50;-3.10;97.60
22795;DHT22;11564;50.920;11.612;2022-12-18T16:44:17;-3.30;97.50
22795;DHT22;11564;50.920;11.612;2022-12-18T16:46:42;-3.30;97.60
22795;DHT22;11564;50.920;11.612;2022-12-18T16:49:14;-3.20;97.70
22795;DHT22;11564;50.920;11.612;2022-12-18T16:51:41;-3.20;97.90
22795;DHT22;11564;50.920;11.612;2022-12-18T16:54:07;-3.20;97.30
22795;DHT22;11564;50.920;11.612;2022-12-18T16:56:33;-3.20;98.10
22795;DHT22;11564;50.920;11.612;2022-12-18T16:58:59;-3.20;97.70
22795;DHT22;11564;50.920;11.612;2022-12-18T17:01:26;-3.20;97.50
22795;DHT22;11564;50.920;11.612;2022-12-18T17:04:04;-3.10;97.70
22795;DHT22;11564;50.920;11.612;2022-12-18T17:06:32;-3.20;97.90
22795;DHT22;11564;50.920;11.612;2022-12-18T17:08:59;-3.10;97.60
22795;DHT22;11564;50.920;11.612;2022-12-18T17:11:27;-3.20;97.80
22795;DHT22;11564;50.920;11.612;2022-12-18T17:13:53;-3.00;96.50